createdAt,value
2022-12-09T00:00:08.570Z,33.23
2022-12-09T00:02:36.320Z,34.40
2022-12-09T00:05:04.235Z,33.03
2022-12-09T00:07:31.484Z,33.93
2022-12-09T00:09:58.449Z,36.87
2022-12-09T00:12:25.455Z,38.43
2022-12-09T00:14:52.847Z,34.23
2022-12-09T00:17:19.828Z,34.80
2022-12-09T00:19:47.576Z,32.17
2022-12-09T00:22:14.498Z,28.83
2022-12-09T00:24:41.483Z,33.60
2022-12-09T00:27:08.703Z,29.80
2022-12-09T00:29:35.590Z,29.83
2022-12-09T00:32:03.093Z,32.43
2022-12-09T00:34:30.435Z,31.00
2022-12-09T00:36:57.304Z,31.40
2022-12-09T00:39:24.227Z,31.63
2022-12-09T00:41:51.673Z,31.90
2022-12-09T00:44:19.192Z,33.07
2022-12-09T00:46:46.214Z,34.10
2022-12-09T00:49:13.358Z,31.50
2022-12-09T00:51:40.442Z,32.00
2022-12-09T00:54:07.622Z,35.07
2022-12-09T00:56:34.679Z,33.80
2022-12-09T00:59:01.808Z,37.03
2022-12-09T01:01:29.306Z,35.07
2022-12-09T01:03:57.064Z,35.97
2022-12-09T01:06:26.355Z,49.50
2022-12-09T01:08:54.325Z,42.77
2022-12-09T01:11:25.866Z,42.80
2022-12-09T01:13:54.777Z,41.33
2022-12-09T01:16:26.734Z,42.47
2022-12-09T01:18:57.542Z,42.00
2022-12-09T01:21:25.133Z,39.27
2022-12-09T01:23:52.496Z,37.77
2022-12-09T01:26:19.415Z,38.53
2022-12-09T01:28:47.166Z,39.40
2022-12-09T01:31:23.056Z,39.43
2022-12-09T01:33:51.045Z,41.10
2022-12-09T01:36:23.991Z,44.13
2022-12-09T01:38:51.559Z,41.63
2022-12-09T01:41:20.673Z,41.03
2022-12-09T01:44:21.348Z,36.13
2022-12-09T01:46:49.497Z,36.77
2022-12-09T01:49:21.774Z,39.53
2022-12-09T01:51:55.751Z,39.97
2022-12-09T01:54:23.108Z,41.40
2022-12-09T01:56:50.640Z,42.67
2022-12-09T01:59:17.849Z,37.20
2022-12-09T02:01:48.070Z,41.63
2022-12-09T02:04:15.405Z,42.70
2022-12-09T02:06:42.461Z,42.30
2022-12-09T02:11:48.211Z,42.17
2022-12-09T02:14:22.374Z,43.13
2022-12-09T02:17:21.405Z,45.70
2022-12-09T02:20:08.843Z,47.27
2022-12-09T02:23:06.179Z,47.50
2022-12-09T02:25:55.097Z,47.53
2022-12-09T02:28:48.261Z,39.80
2022-12-09T02:31:20.947Z,43.50
2022-12-09T02:34:15.989Z,41.37
2022-12-09T02:37:13.945Z,43.30
2022-12-09T02:39:46.761Z,41.20
2022-12-09T02:42:17.073Z,44.43
2022-12-09T02:44:46.812Z,39.80
2022-12-09T02:47:18.421Z,41.60
2022-12-09T02:49:48.673Z,50.57
2022-12-09T02:52:17.196Z,41.17
2022-12-09T02:54:45.180Z,40.80
2022-12-09T02:57:17.284Z,40.50
2022-12-09T02:59:44.358Z,40.43
2022-12-09T03:02:12.954Z,38.33
2022-12-09T03:04:42.898Z,35.60
2022-12-09T03:07:24.876Z,38.23
2022-12-09T03:09:59.062Z,40.33
2022-12-09T03:12:33.687Z,36.80
2022-12-09T03:15:04.588Z,35.70
2022-12-09T03:17:35.832Z,37.80
2022-12-09T03:20:12.933Z,36.27
2022-12-09T03:22:41.499Z,36.37
2022-12-09T03:25:11.581Z,33.90
2022-12-09T03:27:50.662Z,33.67
2022-12-09T03:30:19.176Z,34.67
2022-12-09T03:32:47.179Z,32.43
2022-12-09T03:35:22.147Z,32.33
2022-12-09T03:37:51.846Z,33.90
2022-12-09T03:40:27.578Z,34.87
2022-12-09T03:43:19.829Z,34.63
2022-12-09T03:45:47.940Z,34.90
2022-12-09T03:48:16.036Z,38.07
2022-12-09T03:51:04.620Z,42.90
2022-12-09T03:53:44.508Z,45.43
2022-12-09T03:56:18.732Z,41.00
2022-12-09T04:03:40.092Z,51.13
2022-12-09T04:06:07.504Z,47.23
2022-12-09T04:08:34.584Z,46.80
2022-12-09T04:11:01.598Z,47.73
2022-12-09T04:13:28.769Z,51.07
2022-12-09T04:15:55.934Z,52.13
2022-12-09T04:18:23.270Z,84.03
2022-12-09T04:20:50.595Z,114.50
2022-12-09T04:23:17.597Z,54.30
2022-12-09T04:25:44.798Z,86.60
2022-12-09T04:28:11.604Z,94.13
2022-12-09T04:30:38.742Z,85.77
2022-12-09T04:33:05.964Z,72.03
2022-12-09T04:35:33.164Z,69.90
2022-12-09T04:38:00.677Z,129.03
2022-12-09T04:40:27.718Z,210.50
2022-12-09T04:42:54.926Z,71.07
2022-12-09T04:45:22.107Z,59.03
2022-12-09T04:47:49.519Z,100.17
2022-12-09T04:50:17.350Z,75.63
2022-12-09T04:52:44.620Z,110.80
2022-12-09T04:55:14.211Z,83.70
2022-12-09T04:57:41.680Z,64.67
2022-12-09T05:00:09.851Z,91.47
2022-12-09T05:02:37.565Z,61.10
2022-12-09T05:05:05.083Z,64.13
2022-12-09T05:07:32.946Z,132.10
2022-12-09T05:10:00.402Z,60.80
2022-12-09T05:12:27.585Z,58.67
2022-12-09T05:14:54.652Z,54.90
2022-12-09T05:17:21.840Z,58.77
2022-12-09T05:19:49.136Z,61.40
2022-12-09T05:22:17.860Z,58.63
2022-12-09T05:24:45.225Z,54.57
2022-12-09T05:27:13.117Z,56.90
2022-12-09T05:29:40.116Z,50.47
2022-12-09T05:32:07.941Z,53.83
2022-12-09T05:34:35.240Z,61.00
2022-12-09T05:37:02.408Z,76.63
2022-12-09T05:39:29.765Z,70.20
2022-12-09T05:41:57.049Z,95.87
2022-12-09T05:44:23.939Z,132.00
2022-12-09T05:46:51.332Z,114.77
2022-12-09T05:49:18.651Z,107.93
2022-12-09T05:51:46.032Z,67.23
2022-12-09T05:54:13.048Z,61.73
2022-12-09T05:56:46.179Z,68.73
2022-12-09T05:59:15.072Z,111.10
2022-12-09T06:01:42.089Z,68.20
2022-12-09T06:04:09.470Z,64.23
2022-12-09T06:06:37.028Z,58.47
2022-12-09T06:09:04.619Z,70.10
2022-12-09T06:11:32.790Z,59.00
2022-12-09T06:14:00.356Z,77.10
2022-12-09T06:16:27.548Z,69.00
2022-12-09T06:18:55.231Z,60.63
2022-12-09T06:21:22.797Z,58.70
2022-12-09T06:23:50.806Z,63.17
2022-12-09T06:26:25.618Z,54.80
2022-12-09T06:28:54.231Z,58.30
2022-12-09T06:31:22.178Z,61.17
2022-12-09T06:33:58.589Z,57.03
2022-12-09T06:36:29.088Z,60.97
2022-12-09T06:38:58.795Z,85.77
2022-12-09T06:41:28.218Z,89.00
2022-12-09T06:43:58.347Z,82.50
2022-12-09T06:46:26.493Z,87.57
2022-12-09T06:48:55.805Z,90.87
2022-12-09T06:51:24.394Z,134.13
2022-12-09T06:53:52.041Z,107.60
2022-12-09T06:56:19.702Z,91.73
2022-12-09T06:58:49.311Z,78.47
2022-12-09T07:01:22.039Z,240.67
2022-12-09T07:03:53.336Z,131.27
2022-12-09T07:06:30.883Z,280.07
2022-12-09T07:09:01.936Z,170.83
2022-12-09T07:11:30.225Z,173.03
2022-12-09T07:13:58.315Z,110.77
2022-12-09T07:16:26.827Z,129.00
2022-12-09T07:18:54.752Z,359.73
2022-12-09T07:21:23.477Z,261.50
2022-12-09T07:23:52.022Z,176.13
2022-12-09T07:26:20.012Z,149.13
2022-12-09T07:28:48.180Z,152.47
2022-12-09T07:31:20.491Z,270.37
2022-12-09T07:33:55.252Z,252.10
2022-12-09T07:36:25.255Z,137.87
2022-12-09T07:39:04.021Z,90.30
2022-12-09T07:41:35.963Z,114.53
2022-12-09T07:44:04.186Z,136.50
2022-12-09T07:46:32.364Z,181.13
2022-12-09T07:49:03.683Z,109.00
2022-12-09T07:51:32.606Z,137.63
2022-12-09T07:54:01.819Z,106.70
2022-12-09T07:56:30.306Z,188.20
2022-12-09T07:58:58.291Z,138.47
2022-12-09T08:01:30.222Z,172.57
2022-12-09T08:03:59.344Z,292.67
2022-12-09T08:06:29.785Z,142.17
2022-12-09T08:09:05.365Z,350.03
2022-12-09T08:11:35.000Z,90.10
2022-12-09T08:14:11.428Z,104.87
2022-12-09T08:16:42.601Z,120.23
2022-12-09T08:19:12.593Z,87.97
2022-12-09T08:21:51.454Z,170.13
2022-12-09T08:24:24.220Z,125.27
2022-12-09T08:26:52.072Z,92.70
2022-12-09T08:29:20.191Z,78.73
2022-12-09T08:31:49.059Z,99.43
2022-12-09T08:34:16.953Z,79.87
2022-12-09T08:36:45.821Z,144.20
2022-12-09T08:39:15.000Z,96.13
2022-12-09T08:41:44.638Z,103.50
2022-12-09T08:44:17.959Z,74.77
2022-12-09T08:46:49.487Z,75.93
2022-12-09T08:49:19.269Z,60.70
2022-12-09T08:54:30.286Z,77.90
2022-12-09T08:56:57.804Z,90.03
2022-12-09T08:59:26.200Z,63.63
2022-12-09T09:01:54.534Z,73.97
2022-12-09T09:04:24.059Z,67.90
2022-12-09T09:06:52.456Z,82.05
2022-12-09T09:11:48.997Z,63.90
2022-12-09T09:14:16.828Z,57.57
2022-12-09T09:16:46.481Z,61.40
2022-12-09T09:19:18.805Z,60.97
2022-12-09T09:24:19.924Z,68.05
2022-12-09T09:26:48.451Z,62.43
2022-12-09T09:29:19.057Z,66.50
2022-12-09T09:31:50.438Z,64.40
2022-12-09T09:34:19.345Z,56.33
2022-12-09T09:36:47.765Z,61.57
2022-12-09T09:39:15.316Z,62.57
2022-12-09T09:41:49.472Z,66.03
2022-12-09T09:44:20.552Z,64.63
2022-12-09T09:46:50.271Z,66.33
2022-12-09T09:49:37.502Z,71.27
2022-12-09T09:52:10.306Z,68.33
2022-12-09T09:54:38.542Z,63.20
2022-12-09T09:57:22.160Z,61.23
2022-12-09T10:00:08.831Z,68.97
2022-12-09T10:02:56.971Z,70.57
2022-12-09T10:05:33.146Z,68.50
2022-12-09T10:08:20.787Z,64.87
2022-12-09T10:10:56.760Z,64.23
2022-12-09T10:13:50.457Z,65.60
2022-12-09T10:16:19.337Z,67.57
2022-12-09T10:18:50.764Z,68.03
2022-12-09T10:21:20.106Z,66.43
2022-12-09T10:23:48.860Z,69.87
2022-12-09T10:26:38.072Z,62.40
2022-12-09T10:29:20.665Z,62.70
2022-12-09T10:31:47.824Z,66.20
2022-12-09T10:34:16.083Z,66.43
2022-12-09T10:36:46.102Z,62.00
2022-12-09T10:39:21.932Z,64.13
2022-12-09T10:42:14.155Z,60.10
2022-12-09T10:47:26.319Z,61.55
2022-12-09T10:49:55.640Z,60.27
2022-12-09T10:52:25.783Z,60.43
2022-12-09T10:54:53.658Z,57.53
2022-12-09T10:57:27.478Z,58.33
2022-12-09T11:00:08.311Z,56.40
2022-12-09T11:02:35.782Z,57.83
2022-12-09T11:10:26.609Z,47.73
2022-12-09T11:13:03.682Z,52.45
2022-12-09T11:15:41.325Z,48.03
2022-12-09T11:18:25.500Z,37.63
2022-12-09T11:21:02.463Z,39.00
2022-12-09T11:23:30.111Z,34.73
2022-12-09T11:26:06.876Z,35.40
2022-12-09T11:28:35.309Z,34.73
2022-12-09T11:33:59.117Z,30.90
2022-12-09T11:36:42.189Z,27.23
2022-12-09T11:39:28.457Z,26.13
2022-12-09T11:42:18.957Z,32.13
2022-12-09T11:45:07.221Z,29.53
2022-12-09T11:48:21.214Z,29.07
2022-12-09T11:50:33.300Z,41.63
2022-12-09T11:53:11.430Z,42.80
2022-12-09T11:55:52.531Z,47.60
2022-12-09T11:58:25.160Z,46.17
2022-12-09T12:01:06.163Z,51.80
2022-12-09T12:03:36.078Z,49.77
2022-12-09T12:06:07.237Z,52.10
2022-12-09T12:08:46.699Z,56.63
2022-12-09T12:11:20.884Z,49.80
2022-12-09T12:13:58.186Z,52.50
2022-12-09T12:16:50.197Z,49.67
2022-12-09T12:19:28.957Z,49.43
2022-12-09T12:22:08.384Z,50.93
2022-12-09T12:24:58.772Z,48.03
2022-12-09T12:27:40.859Z,50.63
2022-12-09T12:30:10.533Z,50.00
2022-12-09T12:33:11.871Z,46.93
2022-12-09T12:35:52.440Z,45.87
2022-12-09T12:38:35.718Z,45.50
2022-12-09T12:41:26.635Z,49.97
2022-12-09T12:44:30.155Z,47.90
2022-12-09T12:46:57.057Z,46.13
2022-12-09T12:49:46.810Z,48.57
2022-12-09T12:52:47.385Z,48.90
2022-12-09T12:55:26.897Z,45.53
2022-12-09T12:57:59.678Z,46.17
2022-12-09T13:00:44.661Z,44.30
2022-12-09T13:03:30.410Z,46.93
2022-12-09T13:05:58.545Z,45.93
2022-12-09T13:08:41.607Z,46.20
2022-12-09T13:11:20.069Z,46.23
2022-12-09T13:13:56.957Z,44.60
2022-12-09T13:16:31.247Z,45.97
2022-12-09T13:19:06.073Z,46.23
2022-12-09T13:21:34.001Z,45.60
2022-12-09T13:24:26.946Z,50.13
2022-12-09T13:26:59.464Z,43.50
2022-12-09T13:29:47.377Z,43.47
2022-12-09T13:32:49.782Z,46.07
2022-12-09T13:35:25.391Z,46.60
2022-12-09T13:37:52.513Z,45.07
2022-12-09T13:40:22.176Z,43.03
2022-12-09T13:43:10.919Z,45.63
2022-12-09T13:45:50.512Z,43.57
2022-12-09T13:48:17.794Z,45.07
2022-12-09T13:50:57.442Z,48.07
2022-12-09T13:53:29.633Z,49.20
2022-12-09T13:56:07.311Z,47.13
2022-12-09T13:58:52.990Z,48.33
2022-12-09T14:01:28.379Z,46.73
2022-12-09T14:03:58.218Z,52.83
2022-12-09T14:06:33.878Z,47.40
2022-12-09T14:09:05.007Z,49.23
2022-12-09T14:14:23.359Z,56.23
2022-12-09T14:16:57.416Z,51.47
2022-12-09T14:19:24.237Z,57.80
2022-12-09T14:22:22.685Z,51.77
2022-12-09T14:24:50.242Z,48.90
2022-12-09T14:27:21.418Z,55.20
2022-12-09T14:29:50.273Z,56.53
2022-12-09T14:32:54.106Z,50.80
2022-12-09T14:35:39.841Z,56.23
2022-12-09T14:38:31.335Z,55.83
2022-12-09T14:41:13.337Z,54.60
2022-12-09T14:43:51.995Z,55.07
2022-12-09T14:46:27.006Z,57.60
2022-12-09T14:49:19.743Z,54.87
2022-12-09T14:52:05.213Z,57.00
2022-12-09T14:54:43.792Z,59.17
2022-12-09T14:57:26.724Z,60.00
2022-12-09T14:59:55.607Z,54.40
2022-12-09T15:02:31.853Z,56.50
2022-12-09T15:05:01.388Z,61.27
2022-12-09T15:07:33.339Z,64.27
2022-12-09T15:10:00.361Z,58.50
2022-12-09T15:12:27.229Z,51.30
2022-12-09T15:15:13.721Z,56.47
2022-12-09T15:17:47.002Z,57.47
2022-12-09T15:20:33.893Z,54.37
2022-12-09T15:23:04.570Z,56.17
2022-12-09T15:25:33.617Z,56.80
2022-12-09T15:28:05.334Z,59.27
2022-12-09T15:30:37.408Z,54.67
2022-12-09T15:33:13.115Z,59.57
2022-12-09T15:35:40.116Z,53.63
2022-12-09T15:38:08.751Z,57.57
2022-12-09T15:40:37.057Z,56.30
2022-12-09T15:43:08.795Z,59.77
2022-12-09T15:45:38.782Z,55.10
2022-12-09T15:48:15.148Z,57.13
2022-12-09T15:50:47.427Z,54.97
2022-12-09T15:53:23.457Z,59.23
2022-12-09T15:55:57.936Z,58.03
2022-12-09T15:58:31.702Z,60.57
2022-12-09T16:00:58.850Z,53.83
2022-12-09T16:03:29.215Z,56.47
2022-12-09T16:06:02.527Z,57.83
2022-12-09T16:08:36.249Z,57.00
2022-12-09T16:11:03.648Z,59.67
2022-12-09T16:13:30.647Z,57.60
2022-12-09T16:16:00.022Z,54.67
2022-12-09T16:18:32.237Z,55.90
2022-12-09T16:21:24.182Z,55.43
2022-12-09T16:23:53.778Z,58.77
2022-12-09T16:26:32.794Z,56.97
2022-12-09T16:29:03.572Z,53.30
2022-12-09T16:31:30.545Z,54.90
2022-12-09T16:33:57.809Z,61.60
2022-12-09T16:36:28.321Z,54.73
2022-12-09T16:39:24.410Z,55.83
2022-12-09T16:41:51.259Z,56.57
2022-12-09T16:44:29.388Z,59.63
2022-12-09T16:47:17.827Z,58.25
2022-12-09T16:49:47.275Z,57.40
2022-12-09T16:52:22.805Z,56.80
2022-12-09T16:54:50.430Z,57.43
2022-12-09T16:57:20.064Z,53.57
2022-12-09T16:59:47.582Z,59.03
2022-12-09T17:02:23.017Z,57.83
2022-12-09T17:04:51.250Z,58.77
2022-12-09T17:07:18.189Z,75.63
2022-12-09T17:09:45.049Z,65.87
2022-12-09T17:12:11.939Z,60.43
2022-12-09T17:14:38.870Z,65.00
2022-12-09T17:17:05.963Z,58.93
2022-12-09T17:19:32.968Z,59.67
2022-12-09T17:21:59.909Z,61.50
2022-12-09T17:24:27.116Z,61.23
2022-12-09T17:26:53.972Z,77.00
2022-12-09T17:29:20.843Z,63.37
2022-12-09T17:31:49.788Z,84.20
2022-12-09T17:34:16.780Z,66.77
2022-12-09T17:36:43.760Z,59.20
2022-12-09T17:39:12.856Z,71.53
2022-12-09T17:41:39.866Z,59.63
2022-12-09T17:44:07.150Z,68.37
2022-12-09T17:58:57.294Z,57.57
2022-12-09T18:01:25.455Z,64.40
2022-12-09T18:03:57.269Z,64.30
2022-12-09T18:06:31.755Z,63.60
2022-12-09T18:08:58.581Z,62.97
2022-12-09T18:11:25.443Z,63.83
2022-12-09T18:13:53.105Z,63.23
2022-12-09T18:16:20.471Z,63.97
2022-12-09T18:18:47.969Z,59.57
2022-12-09T18:21:16.226Z,58.43
2022-12-09T18:23:43.932Z,66.03
2022-12-09T18:26:16.662Z,66.30
2022-12-09T18:28:44.174Z,62.17
2022-12-09T18:31:14.284Z,60.80
2022-12-09T18:33:41.298Z,58.70
2022-12-09T18:36:14.741Z,60.33
2022-12-09T18:38:42.524Z,69.00
2022-12-09T18:41:14.014Z,62.67
2022-12-09T18:43:43.285Z,59.87
2022-12-09T18:46:17.683Z,62.93
2022-12-09T18:48:46.262Z,60.90
2022-12-09T18:51:18.219Z,64.30
2022-12-09T18:53:45.650Z,60.80
2022-12-09T18:56:13.071Z,65.07
2022-12-09T18:59:05.391Z,65.63
2022-12-09T19:01:33.266Z,66.13
2022-12-09T19:04:02.515Z,65.57
2022-12-09T19:06:36.489Z,59.87
2022-12-09T19:09:11.387Z,70.90
2022-12-09T19:11:42.691Z,65.07
2022-12-09T19:14:25.851Z,62.47
2022-12-09T19:16:57.229Z,65.90
2022-12-09T19:19:27.184Z,66.70
2022-12-09T19:21:55.842Z,64.20
2022-12-09T19:24:25.944Z,70.67
2022-12-09T19:26:56.650Z,71.90
2022-12-09T19:29:30.873Z,72.53
2022-12-09T19:31:58.536Z,74.60
2022-12-09T19:34:29.157Z,68.03
2022-12-09T19:36:59.475Z,67.03
2022-12-09T19:39:30.522Z,67.33
2022-12-09T19:41:59.541Z,67.53
2022-12-09T19:44:59.519Z,65.07
2022-12-09T19:47:16.166Z,66.90
2022-12-09T19:49:46.678Z,68.87
2022-12-09T19:52:14.225Z,65.87
2022-12-09T19:54:42.198Z,67.63
2022-12-09T19:57:09.660Z,65.53
2022-12-09T19:59:38.589Z,63.63
2022-12-09T20:02:08.900Z,66.40
2022-12-09T20:04:51.712Z,65.70
2022-12-09T20:07:20.289Z,67.27
2022-12-09T20:09:49.384Z,65.23
2022-12-09T20:12:17.166Z,62.17
2022-12-09T20:14:44.310Z,66.47
2022-12-09T20:17:12.547Z,67.60
2022-12-09T20:19:40.984Z,72.77
2022-12-09T20:22:08.492Z,67.37
2022-12-09T20:24:37.081Z,63.27
2022-12-09T20:27:04.686Z,61.87
2022-12-09T20:29:37.497Z,65.03
2022-12-09T20:32:05.091Z,62.13
2022-12-09T20:34:32.206Z,67.80
2022-12-09T20:36:59.183Z,66.17
2022-12-09T20:39:26.056Z,65.97
2022-12-09T20:41:53.047Z,63.20
2022-12-09T20:44:20.228Z,72.93
2022-12-09T20:46:49.518Z,71.43
2022-12-09T20:49:16.695Z,72.77
2022-12-09T20:51:48.723Z,70.07
2022-12-09T20:54:15.865Z,67.87
2022-12-09T20:56:42.956Z,64.30
2022-12-09T20:59:12.562Z,66.97
2022-12-09T21:01:40.179Z,65.73
2022-12-09T21:04:07.647Z,66.10
2022-12-09T21:06:38.310Z,59.70
2022-12-09T21:09:09.120Z,81.03
2022-12-09T21:11:36.522Z,223.87
2022-12-09T21:14:05.066Z,78.20
2022-12-09T21:16:34.491Z,78.03
2022-12-09T21:19:05.733Z,71.30
2022-12-09T21:21:35.145Z,70.37
2022-12-09T21:24:02.762Z,73.33
2022-12-09T21:26:30.486Z,70.47
2022-12-09T21:28:59.732Z,68.83
2022-12-09T21:31:29.454Z,68.73
2022-12-09T21:33:58.216Z,68.93
2022-12-09T21:36:28.865Z,93.67
2022-12-09T21:38:56.395Z,108.70
2022-12-09T21:41:26.010Z,75.23
2022-12-09T21:43:55.088Z,111.63
2022-12-09T21:46:25.124Z,83.83
2022-12-09T21:48:56.091Z,73.40
2022-12-09T21:51:27.516Z,67.43
2022-12-09T21:53:55.151Z,69.37
2022-12-09T21:56:27.571Z,65.37
2022-12-09T21:58:57.245Z,74.30
2022-12-09T22:01:30.147Z,66.00
2022-12-09T22:03:58.302Z,72.23
2022-12-09T22:06:25.258Z,77.20
2022-12-09T22:08:52.723Z,72.23
2022-12-09T22:11:22.753Z,66.20
2022-12-09T22:13:50.420Z,60.63
2022-12-09T22:16:23.312Z,63.60
2022-12-09T22:18:53.424Z,65.40
2022-12-09T22:21:25.722Z,61.87
2022-12-09T22:24:05.304Z,61.53
2022-12-09T22:26:32.854Z,57.37
2022-12-09T22:29:01.204Z,62.20
2022-12-09T22:31:32.346Z,56.27
2022-12-09T22:34:02.371Z,63.70
2022-12-09T22:36:29.296Z,56.93
2022-12-09T22:38:56.491Z,60.27
2022-12-09T22:41:26.392Z,56.33
2022-12-09T22:43:55.023Z,57.70
2022-12-09T22:46:25.096Z,60.90
2022-12-09T22:48:52.194Z,58.50
2022-12-09T22:51:22.317Z,59.13
2022-12-09T22:53:51.268Z,58.20
2022-12-09T22:56:19.168Z,60.03
2022-12-09T22:58:46.826Z,61.33
2022-12-09T23:01:25.887Z,58.10
2022-12-09T23:03:55.072Z,61.23
2022-12-09T23:06:22.306Z,56.50
2022-12-09T23:08:49.449Z,54.97
2022-12-09T23:11:22.090Z,54.37
2022-12-09T23:13:49.422Z,53.67
2022-12-09T23:16:19.629Z,45.20
2022-12-09T23:18:46.795Z,43.10
2022-12-09T23:21:17.192Z,50.60
2022-12-09T23:23:44.740Z,47.47
2022-12-09T23:26:19.068Z,51.57
2022-12-09T23:28:48.481Z,45.03
2022-12-09T23:31:17.487Z,47.03
2022-12-09T23:33:46.225Z,35.97
2022-12-09T23:36:14.946Z,34.43
2022-12-09T23:38:42.224Z,39.47
2022-12-09T23:41:10.678Z,41.87
2022-12-09T23:43:38.777Z,43.33
2022-12-09T23:46:14.920Z,44.00
2022-12-09T23:48:43.851Z,39.67
2022-12-09T23:51:19.841Z,42.10
2022-12-09T23:53:48.831Z,38.07
2022-12-09T23:56:19.009Z,40.30
2022-12-09T23:58:46.945Z,43.60
